sensor_id;sensor_type;location;lat;lon;timestamp;temperature;humidity
74488;DHT22;63019;51.080;13.642;2023-07-13T00:00:54;22.00;69.50
74488;DHT22;63019;51.080;13.642;2023-07-13T00:01:57;22.00;69.40
74488;DHT22;63019;51.080;13.642;2023-07-13T00:02:59;22.00;69.10
74488;DHT22;63019;51.080;13.642;2023-07-13T00:04:01;22.00;69.00
74488;DHT22;63019;51.080;13.642;2023-07-13T00:05:03;22.00;69.10
74488;DHT22;63019;51.080;13.642;2023-07-13T00:06:05;22.00;69.20
74488;DHT22;63019;51.080;13.642;2023-07-13T00:07:08;22.00;68.80
74488;DHT22;63019;51.080;13.642;2023-07-13T00:08:11;22.00;68.90
74488;DHT22;63019;51.080;13.642;2023-07-13T00:09:14;22.00;68.80
74488;DHT22;63019;51.080;13.642;2023-07-13T00:10:17;22.00;69.10
74488;DHT22;63019;51.080;13.642;2023-07-13T00:11:19;22.00;68.60
74488;DHT22;63019;51.080;13.642;2023-07-13T00:12:30;22.00;68.10
74488;DHT22;63019;51.080;13.642;2023-07-13T00:13:33;22.00;68.50
74488;DHT22;63019;51.080;13.642;2023-07-13T00:14:34;22.00;68.50
74488;DHT22;63019;51.080;13.642;2023-07-13T00:15:37;22.00;67.90
74488;DHT22;63019;51.080;13.642;2023-07-13T00:16:40;22.10;68.40
74488;DHT22;63019;51.080;13.642;2023-07-13T00:17:45;22.10;67.80
74488;DHT22;63019;51.080;13.642;2023-07-13T00:18:47;22.20;68.20
74488;DHT22;63019;51.080;13.642;2023-07-13T00:19:49;22.20;68.50
74488;DHT22;63019;51.080;13.642;2023-07-13T00:20:51;22.20;67.90
74488;DHT22;63019;51.080;13.642;2023-07-13T00:21:53;22.20;67.70
74488;DHT22;63019;51.080;13.642;2023-07-13T00:22:57;22.20;68.60
74488;DHT22;63019;51.080;13.642;2023-07-13T00:24:00;22.20;67.80
74488;DHT22;63019;51.080;13.642;2023-07-13T00:25:03;22.20;67.60
74488;DHT22;63019;51.080;13.642;2023-07-13T00:26:07;22.10;68.20
74488;DHT22;63019;51.080;13.642;2023-07-13T00:27:11;22.10;68.30
74488;DHT22;63019;51.080;13.642;2023-07-13T00:28:13;22.10;67.80
74488;DHT22;63019;51.080;13.642;2023-07-13T00:29:15;22.10;68.10
74488;DHT22;63019;51.080;13.642;2023-07-13T00:30:18;22.10;68.80
74488;DHT22;63019;51.080;13.642;2023-07-13T00:31:20;22.20;69.20
74488;DHT22;63019;51.080;13.642;2023-07-13T00:32:22;22.20;68.70
74488;DHT22;63019;51.080;13.642;2023-07-13T00:33:28;22.20;68.20
74488;DHT22;63019;51.080;13.642;2023-07-13T00:34:30;22.20;68.40
74488;DHT22;63019;51.080;13.642;2023-07-13T00:35:34;22.10;67.90
74488;DHT22;63019;51.080;13.642;2023-07-13T00:36:36;22.10;68.50
74488;DHT22;63019;51.080;13.642;2023-07-13T00:37:38;22.00;68.40
74488;DHT22;63019;51.080;13.642;2023-07-13T00:38:40;22.00;68.50
74488;DHT22;63019;51.080;13.642;2023-07-13T00:39:42;21.90;68.30
74488;DHT22;63019;51.080;13.642;2023-07-13T00:40:44;21.90;69.10
74488;DHT22;63019;51.080;13.642;2023-07-13T00:41:46;21.80;69.80
74488;DHT22;63019;51.080;13.642;2023-07-13T00:42:48;21.80;70.60
74488;DHT22;63019;51.080;13.642;2023-07-13T00:43:50;21.70;71.40
74488;DHT22;63019;51.080;13.642;2023-07-13T00:46:28;21.60;73.70
74488;DHT22;63019;51.080;13.642;2023-07-13T00:47:30;21.50;74.60
74488;DHT22;63019;51.080;13.642;2023-07-13T00:48:34;21.40;74.70
74488;DHT22;63019;51.080;13.642;2023-07-13T00:49:37;21.40;75.50
74488;DHT22;63019;51.080;13.642;2023-07-13T00:50:40;21.30;76.90
74488;DHT22;63019;51.080;13.642;2023-07-13T00:51:49;21.20;77.50
74488;DHT22;63019;51.080;13.642;2023-07-13T00:52:53;21.10;79.40
74488;DHT22;63019;51.080;13.642;2023-07-13T00:53:59;20.90;80.30
74488;DHT22;63019;51.080;13.642;2023-07-13T00:55:01;20.80;81.40
74488;DHT22;63019;51.080;13.642;2023-07-13T00:56:04;20.60;81.70
74488;DHT22;63019;51.080;13.642;2023-07-13T00:57:10;20.60;82.20
74488;DHT22;63019;51.080;13.642;2023-07-13T00:58:13;20.40;82.70
74488;DHT22;63019;51.080;13.642;2023-07-13T00:59:17;20.30;82.60
74488;DHT22;63019;51.080;13.642;2023-07-13T01:00:22;20.30;82.90
74488;DHT22;63019;51.080;13.642;2023-07-13T01:01:24;20.20;82.50
74488;DHT22;63019;51.080;13.642;2023-07-13T01:02:27;20.20;82.60
74488;DHT22;63019;51.080;13.642;2023-07-13T01:03:30;20.10;83.00
74488;DHT22;63019;51.080;13.642;2023-07-13T01:04:32;20.10;83.20
74488;DHT22;63019;51.080;13.642;2023-07-13T01:05:35;20.10;83.60
74488;DHT22;63019;51.080;13.642;2023-07-13T01:06:40;20.10;83.60
74488;DHT22;63019;51.080;13.642;2023-07-13T01:07:43;20.10;84.20
74488;DHT22;63019;51.080;13.642;2023-07-13T01:08:45;20.10;85.10
74488;DHT22;63019;51.080;13.642;2023-07-13T01:09:47;20.10;84.90
74488;DHT22;63019;51.080;13.642;2023-07-13T01:10:54;20.10;85.80
74488;DHT22;63019;51.080;13.642;2023-07-13T01:11:56;20.10;85.60
74488;DHT22;63019;51.080;13.642;2023-07-13T01:12:58;20.10;86.30
74488;DHT22;63019;51.080;13.642;2023-07-13T01:14:01;20.10;87.00
74488;DHT22;63019;51.080;13.642;2023-07-13T01:15:05;20.10;87.00
74488;DHT22;63019;51.080;13.642;2023-07-13T01:16:15;20.10;87.10
74488;DHT22;63019;51.080;13.642;2023-07-13T01:17:19;20.10;89.10
74488;DHT22;63019;51.080;13.642;2023-07-13T01:18:23;20.10;89.60
74488;DHT22;63019;51.080;13.642;2023-07-13T01:19:36;20.10;89.30
74488;DHT22;63019;51.080;13.642;2023-07-13T01:20:40;20.10;87.70
74488;DHT22;63019;51.080;13.642;2023-07-13T01:21:42;20.10;89.60
74488;DHT22;63019;51.080;13.642;2023-07-13T01:22:44;20.10;90.10
74488;DHT22;63019;51.080;13.642;2023-07-13T01:23:46;20.10;90.20
74488;DHT22;63019;51.080;13.642;2023-07-13T01:24:48;20.10;90.90
74488;DHT22;63019;51.080;13.642;2023-07-13T01:25:51;20.20;91.20
74488;DHT22;63019;51.080;13.642;2023-07-13T01:26:53;20.20;91.80
74488;DHT22;63019;51.080;13.642;2023-07-13T01:27:54;20.30;91.90
74488;DHT22;63019;51.080;13.642;2023-07-13T01:28:56;20.30;91.30
74488;DHT22;63019;51.080;13.642;2023-07-13T01:29:58;20.30;91.00
74488;DHT22;63019;51.080;13.642;2023-07-13T01:31:05;20.20;90.80
74488;DHT22;63019;51.080;13.642;2023-07-13T01:32:11;20.20;91.00
74488;DHT22;63019;51.080;13.642;2023-07-13T01:33:17;20.20;90.90
74488;DHT22;63019;51.080;13.642;2023-07-13T01:34:19;20.20;91.00
74488;DHT22;63019;51.080;13.642;2023-07-13T01:35:21;20.20;91.10
74488;DHT22;63019;51.080;13.642;2023-07-13T01:36:23;20.20;91.60
74488;DHT22;63019;51.080;13.642;2023-07-13T01:37:26;20.20;91.40
74488;DHT22;63019;51.080;13.642;2023-07-13T01:38:28;20.20;91.50
74488;DHT22;63019;51.080;13.642;2023-07-13T01:39:30;20.10;92.00
74488;DHT22;63019;51.080;13.642;2023-07-13T01:40:33;20.10;92.10
74488;DHT22;63019;51.080;13.642;2023-07-13T01:41:35;20.10;92.40
74488;DHT22;63019;51.080;13.642;2023-07-13T01:42:37;20.00;92.60
74488;DHT22;63019;51.080;13.642;2023-07-13T01:43:39;20.00;92.60
74488;DHT22;63019;51.080;13.642;2023-07-13T01:44:41;20.00;92.70
74488;DHT22;63019;51.080;13.642;2023-07-13T01:45:43;19.90;92.70
74488;DHT22;63019;51.080;13.642;2023-07-13T01:46:47;19.90;92.80
74488;DHT22;63019;51.080;13.642;2023-07-13T01:47:49;19.90;92.90
74488;DHT22;63019;51.080;13.642;2023-07-13T01:48:51;19.90;92.90
74488;DHT22;63019;51.080;13.642;2023-07-13T01:49:53;19.90;93.20
74488;DHT22;63019;51.080;13.642;2023-07-13T01:50:55;19.90;93.50
74488;DHT22;63019;51.080;13.642;2023-07-13T01:51:57;19.90;93.50
74488;DHT22;63019;51.080;13.642;2023-07-13T01:52:59;19.90;93.90
74488;DHT22;63019;51.080;13.642;2023-07-13T01:54:01;19.90;93.90
74488;DHT22;63019;51.080;13.642;2023-07-13T01:55:06;19.90;94.00
74488;DHT22;63019;51.080;13.642;2023-07-13T01:56:08;19.90;94.30
74488;DHT22;63019;51.080;13.642;2023-07-13T01:57:11;19.90;94.50
74488;DHT22;63019;51.080;13.642;2023-07-13T01:58:12;19.90;94.50
74488;DHT22;63019;51.080;13.642;2023-07-13T01:59:14;19.90;94.50
74488;DHT22;63019;51.080;13.642;2023-07-13T02:00:16;19.90;94.50
74488;DHT22;63019;51.080;13.642;2023-07-13T02:01:19;19.90;94.10
74488;DHT22;63019;51.080;13.642;2023-07-13T02:02:20;19.80;94.10
74488;DHT22;63019;51.080;13.642;2023-07-13T02:03:22;19.80;94.40
74488;DHT22;63019;51.080;13.642;2023-07-13T02:04:24;19.70;94.80
74488;DHT22;63019;51.080;13.642;2023-07-13T02:05:26;19.70;94.60
74488;DHT22;63019;51.080;13.642;2023-07-13T02:06:28;19.60;94.50
74488;DHT22;63019;51.080;13.642;2023-07-13T02:07:30;19.50;94.70
74488;DHT22;63019;51.080;13.642;2023-07-13T02:08:32;19.50;94.80
74488;DHT22;63019;51.080;13.642;2023-07-13T02:09:35;19.50;94.80
74488;DHT22;63019;51.080;13.642;2023-07-13T02:10:37;19.40;94.80
74488;DHT22;63019;51.080;13.642;2023-07-13T02:11:38;19.50;94.70
74488;DHT22;63019;51.080;13.642;2023-07-13T02:12:41;19.50;95.10
74488;DHT22;63019;51.080;13.642;2023-07-13T02:13:43;19.50;95.60
74488;DHT22;63019;51.080;13.642;2023-07-13T02:14:45;19.50;95.30
74488;DHT22;63019;51.080;13.642;2023-07-13T02:15:50;19.50;95.30
74488;DHT22;63019;51.080;13.642;2023-07-13T02:16:52;19.50;95.30
74488;DHT22;63019;51.080;13.642;2023-07-13T02:17:54;19.50;95.40
74488;DHT22;63019;51.080;13.642;2023-07-13T02:18:56;19.60;95.50
74488;DHT22;63019;51.080;13.642;2023-07-13T02:19:58;19.60;95.60
74488;DHT22;63019;51.080;13.642;2023-07-13T02:21:00;19.60;95.90
74488;DHT22;63019;51.080;13.642;2023-07-13T02:22:02;19.60;96.40
74488;DHT22;63019;51.080;13.642;2023-07-13T02:23:04;19.60;96.20
74488;DHT22;63019;51.080;13.642;2023-07-13T02:24:10;19.60;96.30
74488;DHT22;63019;51.080;13.642;2023-07-13T02:25:16;19.50;96.50
74488;DHT22;63019;51.080;13.642;2023-07-13T02:26:18;19.50;96.50
74488;DHT22;63019;51.080;13.642;2023-07-13T02:27:20;19.50;96.50
74488;DHT22;63019;51.080;13.642;2023-07-13T02:28:22;19.50;96.40
74488;DHT22;63019;51.080;13.642;2023-07-13T02:29:24;19.30;96.60
74488;DHT22;63019;51.080;13.642;2023-07-13T02:30:27;19.30;96.90
74488;DHT22;63019;51.080;13.642;2023-07-13T02:31:31;19.20;96.90
74488;DHT22;63019;51.080;13.642;2023-07-13T02:32:33;19.20;97.10
74488;DHT22;63019;51.080;13.642;2023-07-13T02:33:35;19.10;96.90
74488;DHT22;63019;51.080;13.642;2023-07-13T02:34:37;19.10;96.60
74488;DHT22;63019;51.080;13.642;2023-07-13T02:35:39;19.10;96.40
74488;DHT22;63019;51.080;13.642;2023-07-13T02:36:41;19.10;96.50
74488;DHT22;63019;51.080;13.642;2023-07-13T02:37:43;19.00;96.50
74488;DHT22;63019;51.080;13.642;2023-07-13T02:38:45;19.00;96.50
74488;DHT22;63019;51.080;13.642;2023-07-13T02:39:47;19.00;96.50
74488;DHT22;63019;51.080;13.642;2023-07-13T02:40:49;19.00;96.60
74488;DHT22;63019;51.080;13.642;2023-07-13T02:41:51;19.00;96.60
74488;DHT22;63019;51.080;13.642;2023-07-13T02:42:53;19.00;96.50
74488;DHT22;63019;51.080;13.642;2023-07-13T02:43:55;18.90;96.90
74488;DHT22;63019;51.080;13.642;2023-07-13T02:45:04;18.90;96.70
74488;DHT22;63019;51.080;13.642;2023-07-13T02:46:06;18.90;96.70
74488;DHT22;63019;51.080;13.642;2023-07-13T02:47:10;18.80;97.00
74488;DHT22;63019;51.080;13.642;2023-07-13T02:48:13;18.80;97.00
74488;DHT22;63019;51.080;13.642;2023-07-13T02:49:15;18.70;97.20
74488;DHT22;63019;51.080;13.642;2023-07-13T02:50:17;18.70;97.50
74488;DHT22;63019;51.080;13.642;2023-07-13T02:51:19;18.60;97.50
74488;DHT22;63019;51.080;13.642;2023-07-13T02:52:21;18.60;97.30
74488;DHT22;63019;51.080;13.642;2023-07-13T02:53:23;18.70;97.30
74488;DHT22;63019;51.080;13.642;2023-07-13T02:54:25;18.70;97.30
74488;DHT22;63019;51.080;13.642;2023-07-13T02:55:27;18.80;97.00
74488;DHT22;63019;51.080;13.642;2023-07-13T02:56:30;18.80;96.90
74488;DHT22;63019;51.080;13.642;2023-07-13T02:57:32;18.90;96.80
74488;DHT22;63019;51.080;13.642;2023-07-13T02:58:35;18.90;96.80
74488;DHT22;63019;51.080;13.642;2023-07-13T02:59:38;19.00;96.90
74488;DHT22;63019;51.080;13.642;2023-07-13T03:00:40;19.00;97.00
74488;DHT22;63019;51.080;13.642;2023-07-13T03:01:42;19.10;96.90
74488;DHT22;63019;51.080;13.642;2023-07-13T03:02:44;19.10;96.90
74488;DHT22;63019;51.080;13.642;2023-07-13T03:03:48;19.10;96.60
74488;DHT22;63019;51.080;13.642;2023-07-13T03:04:50;19.10;96.50
74488;DHT22;63019;51.080;13.642;2023-07-13T03:05:59;19.20;96.70
74488;DHT22;63019;51.080;13.642;2023-07-13T03:07:03;19.20;96.60
74488;DHT22;63019;51.080;13.642;2023-07-13T03:08:05;19.20;96.70
74488;DHT22;63019;51.080;13.642;2023-07-13T03:09:07;19.30;96.80
74488;DHT22;63019;51.080;13.642;2023-07-13T03:10:10;19.30;96.80
74488;DHT22;63019;51.080;13.642;2023-07-13T03:11:14;19.30;96.80
74488;DHT22;63019;51.080;13.642;2023-07-13T03:12:16;19.30;96.90
74488;DHT22;63019;51.080;13.642;2023-07-13T03:13:18;19.20;96.70
74488;DHT22;63019;51.080;13.642;2023-07-13T03:14:21;19.20;96.90
74488;DHT22;63019;51.080;13.642;2023-07-13T03:15:23;19.10;97.00
74488;DHT22;63019;51.080;13.642;2023-07-13T03:16:25;19.10;96.90
74488;DHT22;63019;51.080;13.642;2023-07-13T03:17:27;19.00;97.00
74488;DHT22;63019;51.080;13.642;2023-07-13T03:18:30;19.00;97.00
74488;DHT22;63019;51.080;13.642;2023-07-13T03:19:31;18.90;97.00
74488;DHT22;63019;51.080;13.642;2023-07-13T03:20:34;18.90;97.30
74488;DHT22;63019;51.080;13.642;2023-07-13T03:21:36;18.80;97.30
74488;DHT22;63019;51.080;13.642;2023-07-13T03:22:38;18.80;97.30
74488;DHT22;63019;51.080;13.642;2023-07-13T03:23:40;18.80;97.30
74488;DHT22;63019;51.080;13.642;2023-07-13T03:24:42;18.80;97.20
74488;DHT22;63019;51.080;13.642;2023-07-13T03:25:44;18.80;97.30
74488;DHT22;63019;51.080;13.642;2023-07-13T03:26:46;18.70;97.40
74488;DHT22;63019;51.080;13.642;2023-07-13T03:27:48;18.70;97.40
74488;DHT22;63019;51.080;13.642;2023-07-13T03:28:50;18.70;97.40
74488;DHT22;63019;51.080;13.642;2023-07-13T03:29:52;18.70;97.30
74488;DHT22;63019;51.080;13.642;2023-07-13T03:31:02;18.70;97.20
74488;DHT22;63019;51.080;13.642;2023-07-13T03:32:05;18.70;97.30
74488;DHT22;63019;51.080;13.642;2023-07-13T03:33:07;18.70;97.40
74488;DHT22;63019;51.080;13.642;2023-07-13T03:34:09;18.70;97.60
74488;DHT22;63019;51.080;13.642;2023-07-13T03:35:11;18.70;97.70
74488;DHT22;63019;51.080;13.642;2023-07-13T03:36:22;18.70;97.80
74488;DHT22;63019;51.080;13.642;2023-07-13T03:37:24;18.70;97.70
74488;DHT22;63019;51.080;13.642;2023-07-13T03:38:26;18.70;97.50
74488;DHT22;63019;51.080;13.642;2023-07-13T03:39:28;18.70;97.50
74488;DHT22;63019;51.080;13.642;2023-07-13T03:40:30;18.70;97.60
74488;DHT22;63019;51.080;13.642;2023-07-13T03:41:32;18.80;97.70
74488;DHT22;63019;51.080;13.642;2023-07-13T03:42:34;18.80;97.70
74488;DHT22;63019;51.080;13.642;2023-07-13T03:43:35;18.80;97.70
74488;DHT22;63019;51.080;13.642;2023-07-13T03:44:40;18.80;97.70
74488;DHT22;63019;51.080;13.642;2023-07-13T03:45:42;18.80;97.60
74488;DHT22;63019;51.080;13.642;2023-07-13T03:46:44;18.90;97.70
74488;DHT22;63019;51.080;13.642;2023-07-13T03:47:47;18.90;97.80
74488;DHT22;63019;51.080;13.642;2023-07-13T03:48:49;18.90;97.90
74488;DHT22;63019;51.080;13.642;2023-07-13T03:49:50;18.90;97.90
74488;DHT22;63019;51.080;13.642;2023-07-13T03:50:52;18.90;98.00
74488;DHT22;63019;51.080;13.642;2023-07-13T03:51:54;18.90;97.90
74488;DHT22;63019;51.080;13.642;2023-07-13T03:52:58;18.80;97.90
74488;DHT22;63019;51.080;13.642;2023-07-13T03:54:00;18.80;98.00
74488;DHT22;63019;51.080;13.642;2023-07-13T03:55:02;18.80;98.10
74488;DHT22;63019;51.080;13.642;2023-07-13T03:56:04;18.80;98.20
74488;DHT22;63019;51.080;13.642;2023-07-13T03:57:07;18.70;98.10
74488;DHT22;63019;51.080;13.642;2023-07-13T03:59:27;18.60;98.20
74488;DHT22;63019;51.080;13.642;2023-07-13T04:00:29;18.60;98.30
74488;DHT22;63019;51.080;13.642;2023-07-13T04:01:31;18.50;98.60
74488;DHT22;63019;51.080;13.642;2023-07-13T04:02:33;18.50;98.70
74488;DHT22;63019;51.080;13.642;2023-07-13T04:03:36;18.40;99.00
74488;DHT22;63019;51.080;13.642;2023-07-13T04:04:38;18.40;98.80
74488;DHT22;63019;51.080;13.642;2023-07-13T04:05:42;18.40;99.10
74488;DHT22;63019;51.080;13.642;2023-07-13T04:06:44;18.40;99.20
74488;DHT22;63019;51.080;13.642;2023-07-13T04:07:46;18.40;99.10
74488;DHT22;63019;51.080;13.642;2023-07-13T04:08:50;18.40;99.40
74488;DHT22;63019;51.080;13.642;2023-07-13T04:09:52;18.40;99.00
74488;DHT22;63019;51.080;13.642;2023-07-13T04:10:54;18.50;99.10
74488;DHT22;63019;51.080;13.642;2023-07-13T04:11:56;18.50;99.00
74488;DHT22;63019;51.080;13.642;2023-07-13T04:12:58;18.50;98.80
74488;DHT22;63019;51.080;13.642;2023-07-13T04:14:00;18.60;99.00
74488;DHT22;63019;51.080;13.642;2023-07-13T04:15:02;18.60;98.90
74488;DHT22;63019;51.080;13.642;2023-07-13T04:16:04;18.70;98.90
74488;DHT22;63019;51.080;13.642;2023-07-13T04:17:06;18.80;98.80
74488;DHT22;63019;51.080;13.642;2023-07-13T04:18:09;18.80;98.80
74488;DHT22;63019;51.080;13.642;2023-07-13T04:19:11;18.80;98.70
74488;DHT22;63019;51.080;13.642;2023-07-13T04:20:12;18.80;98.90
74488;DHT22;63019;51.080;13.642;2023-07-13T04:21:15;18.70;99.40
74488;DHT22;63019;51.080;13.642;2023-07-13T04:22:17;18.70;99.70
74488;DHT22;63019;51.080;13.642;2023-07-13T04:23:19;18.70;99.50
74488;DHT22;63019;51.080;13.642;2023-07-13T04:24:22;18.70;99.50
74488;DHT22;63019;51.080;13.642;2023-07-13T04:25:24;18.70;99.70
74488;DHT22;63019;51.080;13.642;2023-07-13T04:26:26;18.70;99.90
74488;DHT22;63019;51.080;13.642;2023-07-13T04:27:28;18.60;99.90
74488;DHT22;63019;51.080;13.642;2023-07-13T04:28:30;18.60;99.90
74488;DHT22;63019;51.080;13.642;2023-07-13T04:29:33;18.60;99.90
74488;DHT22;63019;51.080;13.642;2023-07-13T04:30:35;18.70;99.60
74488;DHT22;63019;51.080;13.642;2023-07-13T04:31:42;18.70;99.40
74488;DHT22;63019;51.080;13.642;2023-07-13T04:32:45;18.80;99.30
74488;DHT22;63019;51.080;13.642;2023-07-13T04:33:47;18.80;99.30
74488;DHT22;63019;51.080;13.642;2023-07-13T04:34:50;18.80;99.50
74488;DHT22;63019;51.080;13.642;2023-07-13T04:35:55;18.80;99.50
74488;DHT22;63019;51.080;13.642;2023-07-13T04:36:58;18.80;99.60
74488;DHT22;63019;51.080;13.642;2023-07-13T04:38:00;18.80;99.70
74488;DHT22;63019;51.080;13.642;2023-07-13T04:39:02;18.80;99.40
74488;DHT22;63019;51.080;13.642;2023-07-13T04:40:04;18.80;99.50
74488;DHT22;63019;51.080;13.642;2023-07-13T04:41:08;18.80;99.60
74488;DHT22;63019;51.080;13.642;2023-07-13T04:42:10;18.80;99.50
74488;DHT22;63019;51.080;13.642;2023-07-13T04:43:12;18.80;99.80
74488;DHT22;63019;51.080;13.642;2023-07-13T04:44:14;18.80;99.50
74488;DHT22;63019;51.080;13.642;2023-07-13T04:45:16;18.80;99.30
74488;DHT22;63019;51.080;13.642;2023-07-13T04:46:19;18.90;99.30
74488;DHT22;63019;51.080;13.642;2023-07-13T04:47:21;18.90;99.10
74488;DHT22;63019;51.080;13.642;2023-07-13T04:48:23;19.00;99.20
74488;DHT22;63019;51.080;13.642;2023-07-13T04:49:25;19.00;99.10
74488;DHT22;63019;51.080;13.642;2023-07-13T04:50:27;19.00;99.10
74488;DHT22;63019;51.080;13.642;2023-07-13T04:51:29;19.00;99.10
74488;DHT22;63019;51.080;13.642;2023-07-13T04:52:31;19.10;99.00
74488;DHT22;63019;51.080;13.642;2023-07-13T04:53:34;19.10;99.20
74488;DHT22;63019;51.080;13.642;2023-07-13T04:54:36;19.10;99.30
74488;DHT22;63019;51.080;13.642;2023-07-13T04:55:38;19.20;99.30
74488;DHT22;63019;51.080;13.642;2023-07-13T04:56:41;19.20;99.90
74488;DHT22;63019;51.080;13.642;2023-07-13T04:57:42;19.20;99.90
74488;DHT22;63019;51.080;13.642;2023-07-13T04:58:44;19.20;99.90
74488;DHT22;63019;51.080;13.642;2023-07-13T04:59:46;19.20;99.90
74488;DHT22;63019;51.080;13.642;2023-07-13T05:00:49;19.30;99.90
74488;DHT22;63019;51.080;13.642;2023-07-13T05:01:51;19.30;99.90
74488;DHT22;63019;51.080;13.642;2023-07-13T05:02:57;19.30;99.90
74488;DHT22;63019;51.080;13.642;2023-07-13T05:03:59;19.30;99.90
74488;DHT22;63019;51.080;13.642;2023-07-13T05:05:02;19.40;99.30
74488;DHT22;63019;51.080;13.642;2023-07-13T05:06:07;19.40;99.80
74488;DHT22;63019;51.080;13.642;2023-07-13T05:07:11;19.40;99.30
74488;DHT22;63019;51.080;13.642;2023-07-13T05:08:13;19.40;99.30
74488;DHT22;63019;51.080;13.642;2023-07-13T05:09:15;19.40;99.20
74488;DHT22;63019;51.080;13.642;2023-07-13T05:10:17;19.40;99.10
74488;DHT22;63019;51.080;13.642;2023-07-13T05:11:19;19.50;99.20
74488;DHT22;63019;51.080;13.642;2023-07-13T05:12:21;19.50;99.30
74488;DHT22;63019;51.080;13.642;2023-07-13T05:13:23;19.60;99.20
74488;DHT22;63019;51.080;13.642;2023-07-13T05:14:28;19.60;99.00
74488;DHT22;63019;51.080;13.642;2023-07-13T05:15:30;19.60;98.80
74488;DHT22;63019;51.080;13.642;2023-07-13T05:16:31;19.60;98.60
74488;DHT22;63019;51.080;13.642;2023-07-13T05:17:35;19.70;98.50
74488;DHT22;63019;51.080;13.642;2023-07-13T05:18:37;19.70;98.70
74488;DHT22;63019;51.080;13.642;2023-07-13T05:19:43;19.70;98.60
74488;DHT22;63019;51.080;13.642;2023-07-13T05:20:45;19.70;99.00
74488;DHT22;63019;51.080;13.642;2023-07-13T05:21:47;19.70;99.10
74488;DHT22;63019;51.080;13.642;2023-07-13T05:22:49;19.60;98.90
74488;DHT22;63019;51.080;13.642;2023-07-13T05:23:52;19.60;99.30
74488;DHT22;63019;51.080;13.642;2023-07-13T05:24:54;19.60;99.40
74488;DHT22;63019;51.080;13.642;2023-07-13T05:25:56;19.60;99.40
74488;DHT22;63019;51.080;13.642;2023-07-13T05:26:58;19.70;99.20
74488;DHT22;63019;51.080;13.642;2023-07-13T05:28:00;19.70;99.00
74488;DHT22;63019;51.080;13.642;2023-07-13T05:29:03;19.70;98.70
74488;DHT22;63019;51.080;13.642;2023-07-13T05:30:06;19.70;98.50
74488;DHT22;63019;51.080;13.642;2023-07-13T05:31:09;19.70;98.40
74488;DHT22;63019;51.080;13.642;2023-07-13T05:32:11;19.80;98.50
74488;DHT22;63019;51.080;13.642;2023-07-13T05:33:14;19.80;98.60
74488;DHT22;63019;51.080;13.642;2023-07-13T05:34:16;19.80;98.50
74488;DHT22;63019;51.080;13.642;2023-07-13T05:35:20;19.90;98.40
74488;DHT22;63019;51.080;13.642;2023-07-13T05:36:22;19.90;98.30
74488;DHT22;63019;51.080;13.642;2023-07-13T05:37:24;20.00;98.70
74488;DHT22;63019;51.080;13.642;2023-07-13T05:38:26;20.00;98.70
74488;DHT22;63019;51.080;13.642;2023-07-13T05:39:27;20.00;98.70
74488;DHT22;63019;51.080;13.642;2023-07-13T05:40:30;20.10;98.80
74488;DHT22;63019;51.080;13.642;2023-07-13T05:41:31;20.10;98.60
74488;DHT22;63019;51.080;13.642;2023-07-13T05:42:33;20.10;98.30
74488;DHT22;63019;51.080;13.642;2023-07-13T05:43:35;20.20;98.30
74488;DHT22;63019;51.080;13.642;2023-07-13T05:44:37;20.20;98.00
74488;DHT22;63019;51.080;13.642;2023-07-13T05:45:39;20.20;97.90
74488;DHT22;63019;51.080;13.642;2023-07-13T05:46:41;20.30;98.00
74488;DHT22;63019;51.080;13.642;2023-07-13T05:47:43;20.20;98.00
74488;DHT22;63019;51.080;13.642;2023-07-13T05:48:45;20.20;98.00
74488;DHT22;63019;51.080;13.642;2023-07-13T05:49:47;20.30;98.20
74488;DHT22;63019;51.080;13.642;2023-07-13T05:50:49;20.20;98.40
74488;DHT22;63019;51.080;13.642;2023-07-13T05:51:51;20.30;98.10
74488;DHT22;63019;51.080;13.642;2023-07-13T05:52:53;20.20;98.30
74488;DHT22;63019;51.080;13.642;2023-07-13T05:53:55;20.20;98.50
74488;DHT22;63019;51.080;13.642;2023-07-13T05:54:57;20.20;98.60
74488;DHT22;63019;51.080;13.642;2023-07-13T05:55:58;20.30;98.20
74488;DHT22;63019;51.080;13.642;2023-07-13T05:57:03;20.20;98.40
74488;DHT22;63019;51.080;13.642;2023-07-13T05:58:05;20.30;98.20
74488;DHT22;63019;51.080;13.642;2023-07-13T05:59:07;20.30;98.40
74488;DHT22;63019;51.080;13.642;2023-07-13T06:00:09;20.30;98.50
74488;DHT22;63019;51.080;13.642;2023-07-13T06:01:13;20.40;98.30
74488;DHT22;63019;51.080;13.642;2023-07-13T06:02:16;20.40;98.00
74488;DHT22;63019;51.080;13.642;2023-07-13T06:03:18;20.40;98.10
74488;DHT22;63019;51.080;13.642;2023-07-13T06:04:20;20.50;98.30
74488;DHT22;63019;51.080;13.642;2023-07-13T06:05:22;20.50;98.20
74488;DHT22;63019;51.080;13.642;2023-07-13T06:06:24;20.60;98.10
74488;DHT22;63019;51.080;13.642;2023-07-13T06:07:25;20.70;97.80
74488;DHT22;63019;51.080;13.642;2023-07-13T06:08:27;20.80;97.60
74488;DHT22;63019;51.080;13.642;2023-07-13T06:09:29;20.80;97.40
74488;DHT22;63019;51.080;13.642;2023-07-13T06:10:35;20.80;97.40
74488;DHT22;63019;51.080;13.642;2023-07-13T06:11:38;20.90;97.40
74488;DHT22;63019;51.080;13.642;2023-07-13T06:12:39;20.90;97.30
74488;DHT22;63019;51.080;13.642;2023-07-13T06:13:42;20.90;97.20
74488;DHT22;63019;51.080;13.642;2023-07-13T06:14:43;21.00;97.30
74488;DHT22;63019;51.080;13.642;2023-07-13T06:15:49;21.00;96.80
74488;DHT22;63019;51.080;13.642;2023-07-13T06:16:51;21.00;97.40
74488;DHT22;63019;51.080;13.642;2023-07-13T06:17:53;21.10;97.00
74488;DHT22;63019;51.080;13.642;2023-07-13T06:18:55;21.10;97.10
74488;DHT22;63019;51.080;13.642;2023-07-13T06:19:57;21.10;96.60
74488;DHT22;63019;51.080;13.642;2023-07-13T06:20:59;21.10;96.10
74488;DHT22;63019;51.080;13.642;2023-07-13T06:22:01;21.10;96.10
74488;DHT22;63019;51.080;13.642;2023-07-13T06:23:02;21.20;96.20
74488;DHT22;63019;51.080;13.642;2023-07-13T06:24:04;21.10;95.90
74488;DHT22;63019;51.080;13.642;2023-07-13T06:25:07;21.10;96.10
74488;DHT22;63019;51.080;13.642;2023-07-13T06:26:10;21.10;96.10
74488;DHT22;63019;51.080;13.642;2023-07-13T06:27:12;21.20;96.10
74488;DHT22;63019;51.080;13.642;2023-07-13T06:28:13;21.20;95.60
74488;DHT22;63019;51.080;13.642;2023-07-13T06:29:16;21.20;95.80
74488;DHT22;63019;51.080;13.642;2023-07-13T06:30:17;21.20;95.70
74488;DHT22;63019;51.080;13.642;2023-07-13T06:31:19;21.30;95.80
74488;DHT22;63019;51.080;13.642;2023-07-13T06:32:21;21.30;95.70